Time;durP1;ratioP1;P1;durP2;ratioP2;P2;SDS_P1;SDS_P2;PMS_P1;PMS_P2;Temp;Humidity;BMP_temperature;BMP_pressure;BME280_temperature;BME280_humidity;BME280_pressure;Samples;Min_cycle;Max_cycle;Signal;HPM_P1;HPM_P2
2023/03/14 00:00:52;;;;;;;7.63;6.03;;;7.00;95.90;;;;;;5004175;28;20029;-64
2023/03/14 00:03:17;;;;;;;7.88;5.10;;;7.00;96.60;;;;;;5001010;28;20125;-64
2023/03/14 00:05:43;;;;;;;6.88;5.18;;;6.90;97.00;;;;;;5012130;28;20124;-64
2023/03/14 00:08:09;;;;;;;7.47;5.70;;;6.70;97.20;;;;;;5008667;28;20044;-65
2023/03/14 00:10:36;;;;;;;8.65;7.35;;;6.70;98.00;;;;;;5015327;28;20060;-65
2023/03/14 00:13:02;;;;;;;11.15;6.90;;;6.70;97.50;;;;;;5011571;28;20120;-65
2023/03/14 00:15:28;;;;;;;10.93;7.63;;;6.70;97.80;;;;;;5007994;28;20595;-66
2023/03/14 00:17:54;;;;;;;12.02;7.40;;;6.60;98.00;;;;;;5004495;28;20275;-65
2023/03/14 00:20:20;;;;;;;11.45;7.10;;;6.60;98.00;;;;;;5011382;28;20034;-62
2023/03/14 00:22:45;;;;;;;10.98;7.40;;;6.60;97.90;;;;;;5013756;28;20502;-62
2023/03/14 00:25:12;;;;;;;13.23;8.63;;;6.60;98.00;;;;;;5014874;28;20112;-62
2023/03/14 00:27:38;;;;;;;11.45;7.65;;;6.60;97.90;;;;;;5011904;28;20041;-63
2023/03/14 00:30:05;;;;;;;12.15;8.35;;;6.70;97.80;;;;;;5014558;28;20036;-64
2023/03/14 00:32:31;;;;;;;11.80;7.70;;;6.70;97.90;;;;;;5012051;28;20121;-63
2023/03/14 00:34:56;;;;;;;11.40;7.63;;;6.80;97.80;;;;;;5005758;28;20472;-65
2023/03/14 00:37:22;;;;;;;10.82;8.00;;;6.70;98.10;;;;;;5007810;28;20045;-65
2023/03/14 00:39:48;;;;;;;9.75;7.60;;;6.80;97.90;;;;;;5011501;28;20037;-65
2023/03/14 00:42:14;;;;;;;9.23;7.00;;;6.80;97.60;;;;;;5007132;28;20072;-65
2023/03/14 00:44:39;;;;;;;7.68;5.65;;;6.80;97.60;;;;;;5009815;28;20032;-65
2023/03/14 00:47:05;;;;;;;12.65;7.05;;;6.70;97.30;;;;;;5012528;28;20053;-63
2023/03/14 00:49:31;;;;;;;8.38;6.60;;;6.40;98.40;;;;;;5008343;28;20030;-63
2023/03/14 00:51:56;;;;;;;11.20;7.47;;;6.10;99.60;;;;;;5010260;28;20033;-63
2023/03/14 00:54:22;;;;;;;9.02;7.13;;;6.00;99.90;;;;;;5003056;28;20543;-64
2023/03/14 00:56:48;;;;;;;8.90;7.00;;;6.00;99.90;;;;;;5010141;28;20047;-65
2023/03/14 00:59:15;;;;;;;10.50;7.25;;;6.00;99.90;;;;;;5006758;28;20049;-64
2023/03/14 01:01:41;;;;;;;9.48;7.63;;;6.00;99.90;;;;;;5006794;28;20032;-63
2023/03/14 01:04:07;;;;;;;10.55;7.93;;;6.10;99.90;;;;;;5001548;28;20037;-61
2023/03/14 01:06:33;;;;;;;9.95;7.78;;;6.10;99.90;;;;;;5009772;28;20095;-63
2023/03/14 01:09:00;;;;;;;10.80;7.80;;;6.10;99.90;;;;;;5009912;28;20123;-63
2023/03/14 01:11:31;;;;;;;8.85;6.25;;;6.10;99.90;;;;;;5002174;28;20171;-63
2023/03/14 01:13:57;;;;;;;9.02;6.45;;;6.20;99.90;;;;;;5004259;28;20026;-63
2023/03/14 01:16:26;;;;;;;12.52;7.35;;;6.00;99.90;;;;;;5000799;28;20033;-63
2023/03/14 01:18:52;;;;;;;9.40;6.03;;;5.90;99.90;;;;;;5002399;28;20113;-63
2023/03/14 01:21:21;;;;;;;7.43;5.28;;;5.80;99.90;;;;;;5005146;28;20094;-63
2023/03/14 01:23:48;;;;;;;10.35;6.80;;;5.70;99.90;;;;;;5004920;28;20032;-63
2023/03/14 01:26:16;;;;;;;9.23;7.03;;;5.60;99.90;;;;;;4993257;28;20041;-63
2023/03/14 01:28:42;;;;;;;13.10;8.50;;;5.50;99.90;;;;;;4997734;28;20041;-63
2023/03/14 01:31:09;;;;;;;18.67;10.68;;;5.50;99.90;;;;;;4997170;28;20098;-64
2023/03/14 01:33:36;;;;;;;17.48;9.55;;;5.60;99.90;;;;;;4999690;28;20029;-63
2023/03/14 01:36:02;;;;;;;9.00;6.70;;;5.70;99.90;;;;;;4999078;28;20025;-63
2023/03/14 01:38:29;;;;;;;6.75;5.90;;;5.60;99.90;;;;;;5004992;28;20755;-62
2023/03/14 01:40:55;;;;;;;7.07;5.72;;;5.60;99.90;;;;;;5002206;28;20037;-63
2023/03/14 01:43:21;;;;;;;7.45;5.88;;;5.50;99.90;;;;;;5000396;28;20679;-64
2023/03/14 01:46:05;;;;;;;18.55;9.90;;;5.30;99.90;;;;;;5005378;28;20558;-63
2023/03/14 01:48:52;;;;;;;16.08;9.90;;;5.30;99.90;;;;;;5007419;28;20059;-64
2023/03/14 01:51:21;;;;;;;13.20;8.68;;;5.50;99.90;;;;;;5004739;28;20021;-64
2023/03/14 01:53:49;;;;;;;13.38;8.40;;;5.60;99.90;;;;;;5002238;28;20118;-63
2023/03/14 01:56:17;;;;;;;19.75;11.48;;;5.50;99.90;;;;;;5004042;28;20041;-63
2023/03/14 01:58:47;;;;;;;15.48;9.70;;;5.40;99.90;;;;;;5004972;28;20036;-64
2023/03/14 02:01:17;;;;;;;19.83;11.63;;;5.50;99.90;;;;;;4999765;28;20040;-63
2023/03/14 02:03:53;;;;;;;17.35;11.43;;;5.50;99.90;;;;;;5000883;28;20516;-63
2023/03/14 02:06:27;;;;;;;16.15;9.68;;;5.50;99.90;;;;;;4998595;28;21167;-63
2023/03/14 02:08:53;;;;;;;15.10;8.30;;;5.60;99.90;;;;;;5006060;28;20034;-63
2023/03/14 02:11:19;;;;;;;12.73;7.78;;;5.60;99.90;;;;;;5004708;28;20033;-63
2023/03/14 02:13:46;;;;;;;7.93;5.68;;;5.60;99.90;;;;;;5004494;28;20646;-63
2023/03/14 02:16:12;;;;;;;9.18;6.93;;;5.50;99.90;;;;;;5001090;28;20486;-63
2023/03/14 02:18:40;;;;;;;9.75;6.50;;;5.20;99.90;;;;;;4999842;28;20103;-63
2023/03/14 02:21:20;;;;;;;9.25;6.05;;;5.00;99.90;;;;;;5005952;28;20026;-63
2023/03/14 02:23:58;;;;;;;8.63;5.93;;;4.90;99.90;;;;;;5004474;28;20351;-71
2023/03/14 02:26:40;;;;;;;11.80;7.25;;;5.00;99.90;;;;;;4996612;28;20030;-71
2023/03/14 02:29:06;;;;;;;11.90;7.22;;;4.90;99.90;;;;;;5003760;28;20029;-71
2023/03/14 02:31:33;;;;;;;12.40;7.70;;;5.10;99.90;;;;;;5004543;28;20037;-71
2023/03/14 02:33:59;;;;;;;13.85;6.35;;;5.20;99.90;;;;;;5001961;28;20022;-72
2023/03/14 02:36:26;;;;;;;9.38;5.93;;;5.20;99.90;;;;;;5000888;28;20045;-71
2023/03/14 02:39:44;;;;;;;9.35;6.45;;;5.00;99.90;;;;;;4995851;28;20040;-63
2023/03/14 02:42:10;;;;;;;11.27;7.60;;;5.00;99.90;;;;;;4964010;28;20048;-64
2023/03/14 02:44:35;;;;;;;12.60;8.02;;;5.00;99.90;;;;;;5007119;28;20030;-63
2023/03/14 02:47:04;;;;;;;14.45;8.50;;;5.00;99.90;;;;;;5006159;28;20014;-64
2023/03/14 02:49:31;;;;;;;11.65;7.07;;;5.10;99.90;;;;;;5005305;28;20026;-64
2023/03/14 02:51:57;;;;;;;10.18;6.97;;;5.10;99.90;;;;;;5005487;28;20532;-64
2023/03/14 02:54:22;;;;;;;16.40;9.65;;;5.00;99.90;;;;;;5009576;28;20604;-64
2023/03/14 02:56:48;;;;;;;11.32;6.55;;;4.90;99.90;;;;;;5002939;28;20504;-64
2023/03/14 02:59:14;;;;;;;9.80;7.05;;;4.90;99.90;;;;;;5011991;28;20033;-64
2023/03/14 03:01:39;;;;;;;14.18;8.57;;;4.80;99.90;;;;;;5006687;28;20200;-64
2023/03/14 03:04:05;;;;;;;13.85;8.45;;;4.90;99.90;;;;;;5015030;28;20078;-64
2023/03/14 03:06:31;;;;;;;18.02;11.40;;;5.00;99.90;;;;;;5006049;28;20041;-64
2023/03/14 03:08:56;;;;;;;10.90;7.07;;;5.00;99.90;;;;;;5014523;28;20038;-64
2023/03/14 03:11:22;;;;;;;15.95;7.95;;;4.80;99.90;;;;;;5014850;28;20048;-64
2023/03/14 03:13:48;;;;;;;11.85;7.18;;;4.80;99.90;;;;;;5016463;28;20465;-64
2023/03/14 03:16:14;;;;;;;13.70;8.18;;;4.70;99.90;;;;;;5009907;28;20132;-64
2023/03/14 03:18:40;;;;;;;11.50;7.65;;;4.80;99.90;;;;;;5017989;28;20021;-63
2023/03/14 03:21:08;;;;;;;10.77;7.38;;;4.80;99.90;;;;;;5017497;28;20061;-64
2023/03/14 03:23:34;;;;;;;9.18;6.63;;;4.90;99.90;;;;;;5010659;28;20028;-64
2023/03/14 03:26:00;;;;;;;10.27;7.35;;;5.00;99.90;;;;;;5009283;28;20045;-64
2023/03/14 03:28:26;;;;;;;10.85;7.47;;;5.10;99.90;;;;;;5016045;28;20029;-64
2023/03/14 03:30:52;;;;;;;7.30;4.72;;;5.00;99.90;;;;;;5014499;28;20033;-64
2023/03/14 03:33:17;;;;;;;6.93;5.28;;;4.80;99.90;;;;;;5014446;28;20096;-63
2023/03/14 03:35:49;;;;;;;8.43;5.60;;;4.60;99.90;;;;;;5017087;28;20048;-63
2023/03/14 03:38:15;;;;;;;;;;;4.40;99.90;;;;;;5016508;28;20056;-72
2023/03/14 03:40:41;;;;;;;9.05;4.65;;;4.40;99.90;;;;;;5010816;28;19913;-72
2023/03/14 03:43:07;;;;;;;8.85;6.20;;;4.30;99.90;;;;;;5013410;28;20029;-71
2023/03/14 03:45:33;;;;;;;8.75;5.70;;;4.30;99.90;;;;;;5015992;28;20029;-71
2023/03/14 03:47:58;;;;;;;9.05;5.95;;;4.40;99.90;;;;;;5013663;28;20045;-72
2023/03/14 03:50:24;;;;;;;6.95;4.97;;;4.40;99.90;;;;;;5013159;28;20514;-72
2023/03/14 03:52:50;;;;;;;9.77;5.68;;;4.40;99.90;;;;;;5015142;28;20164;-72
2023/03/14 03:55:15;;;;;;;6.80;5.50;;;4.40;99.90;;;;;;5015933;28;20072;-72
2023/03/14 03:57:41;;;;;;;7.50;4.80;;;4.40;99.90;;;;;;5009242;28;20064;-71
2023/03/14 04:00:11;;;;;;;7.82;5.18;;;4.30;99.90;;;;;;5011106;28;20102;-72
2023/03/14 04:02:37;;;;;;;7.47;5.57;;;4.30;99.90;;;;;;5013546;28;20065;-71
2023/03/14 04:05:03;;;;;;;11.07;6.25;;;4.40;99.90;;;;;;5017385;28;20022;-72
2023/03/14 04:07:32;;;;;;;11.95;5.55;;;4.50;99.90;;;;;;5008927;28;20068;-72
2023/03/14 04:09:57;;;;;;;9.15;7.10;;;4.50;99.90;;;;;;5013361;28;20056;-71
2023/03/14 04:12:23;;;;;;;10.32;6.88;;;4.60;99.90;;;;;;5012826;28;20026;-71
2023/03/14 04:14:49;;;;;;;11.27;7.40;;;4.70;99.90;;;;;;5014451;28;20044;-72
2023/03/14 04:17:14;;;;;;;14.07;7.85;;;4.60;99.90;;;;;;5009204;28;20069;-71
2023/03/14 04:19:41;;;;;;;13.15;7.93;;;4.60;99.90;;;;;;5014091;28;20129;-72
2023/03/14 04:22:08;;;;;;;11.98;7.80;;;4.60;99.90;;;;;;5011773;28;20029;-71
2023/03/14 04:24:33;;;;;;;12.77;8.20;;;4.60;99.90;;;;;;5009588;28;20060;-72
2023/03/14 04:26:59;;;;;;;9.65;5.10;;;4.60;99.90;;;;;;5006253;28;20030;-71
2023/03/14 04:29:24;;;;;;;6.18;5.25;;;4.40;99.90;;;;;;5007433;28;20032;-72
2023/03/14 04:31:50;;;;;;;12.98;6.47;;;4.20;99.90;;;;;;5010100;28;20753;-72
2023/03/14 04:34:16;;;;;;;7.45;5.28;;;4.10;99.90;;;;;;5010641;28;20045;-72
2023/03/14 04:36:41;;;;;;;7.13;5.70;;;4.00;99.90;;;;;;5011584;28;20076;-71
2023/03/14 04:39:07;;;;;;;7.53;5.70;;;4.00;99.90;;;;;;5008203;28;20137;-71
2023/03/14 04:41:33;;;;;;;6.25;5.00;;;3.90;99.90;;;;;;4993597;28;20035;-71
2023/03/14 04:43:59;;;;;;;8.45;5.57;;;3.90;99.90;;;;;;4996677;28;20030;-72
2023/03/14 04:46:24;;;;;;;8.38;6.15;;;3.90;99.90;;;;;;5011038;28;20037;-72
2023/03/14 04:48:50;;;;;;;8.52;5.80;;;3.90;99.90;;;;;;5011889;28;20409;-72
2023/03/14 04:51:16;;;;;;;8.65;5.30;;;3.90;99.90;;;;;;4993438;28;20133;-71
2023/03/14 04:53:41;;;;;;;8.82;5.88;;;4.00;99.90;;;;;;5015827;28;20053;-71
2023/03/14 04:56:07;;;;;;;10.95;7.28;;;4.10;99.90;;;;;;5007473;28;20053;-72
2023/03/14 04:58:33;;;;;;;12.93;8.70;;;4.10;99.90;;;;;;5011481;28;20033;-72
2023/03/14 05:01:03;;;;;;;8.63;6.20;;;4.10;99.90;;;;;;5007186;28;20124;-72
2023/03/14 05:03:29;;;;;;;10.68;6.75;;;4.10;99.90;;;;;;5007822;28;20087;-71
2023/03/14 05:05:57;;;;;;;8.88;5.97;;;4.10;99.90;;;;;;5005962;28;20042;-71
2023/03/14 05:08:22;;;;;;;12.15;6.80;;;3.90;99.90;;;;;;5011421;28;20033;-72
2023/03/14 05:10:53;;;;;;;10.40;6.55;;;3.80;99.90;;;;;;5008879;28;20566;-71
2023/03/14 05:13:19;;;;;;;10.98;7.28;;;3.70;99.90;;;;;;4995094;28;20430;-72
2023/03/14 05:15:44;;;;;;;10.32;6.57;;;3.70;99.90;;;;;;5014855;28;20041;-71
2023/03/14 05:18:10;;;;;;;12.30;7.05;;;3.80;99.90;;;;;;5010637;28;20042;-71
2023/03/14 05:20:36;;;;;;;39.83;21.67;;;3.90;99.90;;;;;;5011156;28;20105;-70
2023/03/14 05:23:01;;;;;;;31.40;17.67;;;4.00;99.90;;;;;;5009198;28;20466;-71
2023/03/14 05:25:27;;;;;;;39.15;22.38;;;3.90;99.90;;;;;;5012067;28;20021;-73
2023/03/14 05:27:55;;;;;;;34.30;19.42;;;4.00;99.90;;;;;;5006175;28;20038;-70
2023/03/14 05:30:21;;;;;;;35.88;19.55;;;4.00;99.90;;;;;;5006434;28;20603;-72
2023/03/14 05:32:47;;;;;;;43.97;23.42;;;4.10;99.90;;;;;;5013334;28;20041;-70
2023/03/14 05:35:13;;;;;;;60.08;32.80;;;4.20;99.90;;;;;;5012734;28;20572;-70
2023/03/14 05:37:39;;;;;;;61.30;33.10;;;4.20;99.90;;;;;;5011414;28;20125;-70
2023/03/14 05:40:06;;;;;;;36.38;21.52;;;4.30;99.90;;;;;;5012020;28;20478;-71
2023/03/14 05:42:33;;;;;;;62.83;32.58;;;4.50;99.90;;;;;;5004506;28;20726;-70
2023/03/14 05:44:58;;;;;;;64.53;33.60;;;4.40;99.90;;;;;;5008600;28;20130;-70
2023/03/14 05:47:24;;;;;;;84.50;43.67;;;4.50;99.90;;;;;;5009693;28;20536;-71
2023/03/14 05:49:50;;;;;;;71.88;40.03;;;4.70;99.90;;;;;;5007253;28;20037;-72
2023/03/14 05:52:16;;;;;;;65.40;35.95;;;4.90;99.90;;;;;;5013736;28;20504;-72
2023/03/14 05:54:41;;;;;;;62.53;35.25;;;5.00;99.90;;;;;;5012120;28;20049;-71
2023/03/14 05:57:07;;;;;;;62.00;35.30;;;5.10;99.90;;;;;;5006640;28;20605;-70
2023/03/14 05:59:33;;;;;;;84.18;45.38;;;5.20;99.90;;;;;;5010007;28;20029;-71
2023/03/14 06:01:58;;;;;;;46.72;26.83;;;5.30;99.90;;;;;;4998868;28;20377;-71
2023/03/14 06:04:24;;;;;;;44.70;25.17;;;5.40;99.90;;;;;;4995097;28;20100;-70
2023/03/14 06:06:50;;;;;;;50.90;29.00;;;5.30;99.90;;;;;;5004294;28;20113;-71
2023/03/14 06:09:16;;;;;;;52.20;29.67;;;5.30;99.90;;;;;;5004281;28;20045;-71
2023/03/14 06:11:41;;;;;;;46.30;25.83;;;5.40;99.90;;;;;;5003564;28;20033;-71
2023/03/14 06:14:08;;;;;;;39.58;23.10;;;5.50;99.90;;;;;;5005369;28;20029;-71
2023/03/14 06:16:33;;;;;;;45.33;24.83;;;5.50;99.90;;;;;;5001808;28;20046;-71
2023/03/14 06:21:43;;;;;;;43.10;25.35;;;5.60;99.90;;;;;;5002325;28;20156;-71
2023/03/14 06:24:09;;;;;;;44.83;24.88;;;5.50;99.90;;;;;;5002267;28;20025;-71
2023/03/14 06:26:35;;;;;;;37.70;21.80;;;5.50;99.90;;;;;;5000959;28;20125;-73
2023/03/14 06:29:03;;;;;;;30.38;17.10;;;5.60;99.90;;;;;;5005312;28;20481;-70
2023/03/14 06:31:32;;;;;;;30.83;17.00;;;5.60;99.90;;;;;;5001920;28;20069;-72
2023/03/14 06:33:58;;;;;;;27.65;17.40;;;5.80;99.90;;;;;;4999551;28;20380;-72
2023/03/14 06:36:24;;;;;;;22.88;13.65;;;6.00;99.90;;;;;;5001204;28;20041;-74
2023/03/14 06:38:50;;;;;;;17.60;12.00;;;6.10;99.90;;;;;;5002191;28;20501;-73
2023/03/14 06:41:15;;;;;;;19.77;11.75;;;6.20;99.90;;;;;;5002271;28;20112;-73
2023/03/14 06:43:41;;;;;;;18.25;11.43;;;6.30;99.90;;;;;;5004333;28;20041;-73
2023/03/14 06:46:07;;;;;;;16.10;10.65;;;6.50;99.90;;;;;;5007153;28;20057;-73
2023/03/14 06:48:32;;;;;;;17.77;11.02;;;6.50;99.90;;;;;;5014033;28;20069;-64
2023/03/14 06:50:58;;;;;;;18.08;12.20;;;6.60;99.90;;;;;;5008620;28;20649;-64
2023/03/14 06:53:24;;;;;;;20.75;12.73;;;6.70;99.90;;;;;;5012444;28;20033;-64
2023/03/14 06:55:49;;;;;;;20.25;11.95;;;6.70;99.90;;;;;;4994067;28;20017;-64
2023/03/14 06:58:16;;;;;;;14.10;8.40;;;6.70;99.90;;;;;;5010695;28;20044;-64
2023/03/14 07:00:42;;;;;;;13.05;7.57;;;6.70;99.90;;;;;;5008184;28;20111;-66
2023/03/14 07:03:09;;;;;;;11.52;7.13;;;6.80;99.90;;;;;;5011695;28;20030;-73
2023/03/14 07:05:35;;;;;;;9.15;5.85;;;6.80;99.90;;;;;;5002855;28;20030;-73
2023/03/14 07:08:00;;;;;;;10.40;6.13;;;6.90;99.90;;;;;;5002950;28;20035;-63
2023/03/14 07:10:27;;;;;;;6.93;5.57;;;6.90;99.90;;;;;;5010843;28;20048;-64
2023/03/14 07:12:53;;;;;;;8.82;4.95;;;7.00;99.90;;;;;;5010704;28;20065;-63
2023/03/14 07:15:19;;;;;;;6.60;4.95;;;7.10;99.90;;;;;;5004796;28;20030;-64
2023/03/14 07:17:45;;;;;;;7.95;5.22;;;7.20;99.90;;;;;;5007468;28;20044;-64
2023/03/14 07:20:11;;;;;;;14.70;4.78;;;7.30;99.90;;;;;;5013287;28;20026;-63
2023/03/14 07:22:36;;;;;;;7.82;5.00;;;7.40;99.90;;;;;;5010818;28;20060;-63
2023/03/14 07:25:02;;;;;;;6.50;5.05;;;7.50;99.90;;;;;;5011000;28;20108;-64
2023/03/14 07:27:28;;;;;;;7.00;4.85;;;7.60;99.90;;;;;;4992791;28;20065;-64
2023/03/14 07:29:53;;;;;;;9.07;4.88;;;7.70;99.90;;;;;;5008220;28;20021;-63
2023/03/14 07:32:19;;;;;;;6.80;5.32;;;7.80;99.90;;;;;;5008728;28;20733;-64
2023/03/14 07:34:45;;;;;;;7.85;5.05;;;7.80;99.90;;;;;;4996464;28;20048;-64
2023/03/14 07:37:11;;;;;;;7.13;5.05;;;7.90;99.90;;;;;;5014036;28;20111;-63
2023/03/14 07:39:36;;;;;;;7.80;5.43;;;8.00;99.90;;;;;;5008026;28;20079;-64
2023/03/14 07:42:02;;;;;;;7.50;4.97;;;8.20;99.90;;;;;;5012596;28;20058;-63
2023/03/14 07:44:28;;;;;;;6.95;4.18;;;8.30;99.90;;;;;;5013260;28;20026;-63
2023/03/14 07:46:53;;;;;;;13.15;5.15;;;8.50;99.90;;;;;;5009732;28;20150;-64
2023/03/14 07:49:19;;;;;;;8.80;4.47;;;8.70;99.90;;;;;;5012949;28;20586;-63
2023/03/14 07:51:48;;;;;;;6.05;4.80;;;8.90;99.90;;;;;;5013729;28;20076;-64
2023/03/14 07:54:14;;;;;;;8.25;4.72;;;9.10;99.90;;;;;;5014103;28;20069;-64
2023/03/14 07:56:39;;;;;;;8.38;4.85;;;9.30;99.90;;;;;;5008560;28;20505;-63
2023/03/14 07:59:05;;;;;;;5.97;4.35;;;9.40;99.90;;;;;;5015175;28;20429;-63
2023/03/14 08:01:31;;;;;;;6.05;4.30;;;9.60;99.90;;;;;;5004223;28;20088;-63
2023/03/14 08:03:56;;;;;;;8.32;4.93;;;9.60;99.90;;;;;;5001470;28;20098;-63
2023/03/14 08:06:22;;;;;;;7.53;5.53;;;9.70;99.90;;;;;;5007846;28;20037;-76
2023/03/14 08:08:47;;;;;;;8.60;5.07;;;9.70;99.90;;;;;;5016072;28;20045;-76
2023/03/14 08:11:13;;;;;;;9.20;5.07;;;9.90;99.90;;;;;;5012706;28;20822;-75
2023/03/14 08:13:39;;;;;;;6.43;4.60;;;10.00;99.90;;;;;;5014163;28;20531;-77
2023/03/14 08:16:05;;;;;;;11.30;5.15;;;10.20;99.90;;;;;;5013342;28;20041;-73
2023/03/14 08:18:31;;;;;;;6.50;4.85;;;10.30;99.90;;;;;;5007035;28;20057;-75
2023/03/14 08:20:57;;;;;;;6.88;5.45;;;10.40;99.90;;;;;;5014184;28;20033;-75
2023/03/14 08:23:23;;;;;;;7.43;4.88;;;10.50;99.90;;;;;;5012708;28;20031;-75
2023/03/14 08:25:50;;;;;;;6.38;4.80;;;10.60;99.90;;;;;;5009560;28;20037;-63
2023/03/14 08:28:16;;;;;;;7.55;5.03;;;10.70;99.90;;;;;;5003482;28;20029;-63
2023/03/14 08:30:42;;;;;;;8.82;5.25;;;10.90;99.90;;;;;;5009795;28;20034;-63
2023/03/14 08:33:08;;;;;;;9.07;5.65;;;11.10;99.90;;;;;;5010448;28;20064;-63
2023/03/14 08:35:34;;;;;;;24.55;15.82;;;11.20;99.90;;;;;;5010228;28;20178;-63
2023/03/14 08:37:59;;;;;;;8.00;6.80;;;11.40;99.90;;;;;;5008592;28;20116;-63
2023/03/14 08:40:25;;;;;;;9.18;6.20;;;11.50;99.90;;;;;;5011114;28;20116;-63
2023/03/14 08:42:50;;;;;;;9.10;5.57;;;11.60;99.70;;;;;;5009213;28;20033;-63
2023/03/14 08:45:16;;;;;;;7.55;5.68;;;11.60;99.30;;;;;;5009287;28;20025;-63
2023/03/14 08:47:44;;;;;;;7.82;5.75;;;11.70;99.40;;;;;;5006740;28;20071;-63
2023/03/14 08:50:11;;;;;;;8.55;6.28;;;11.80;99.30;;;;;;5015811;28;20355;-63
2023/03/14 08:52:37;;;;;;;10.32;7.60;;;11.90;99.40;;;;;;5015228;28;20105;-63
2023/03/14 08:55:04;;;;;;;22.40;14.70;;;12.00;98.90;;;;;;5011750;28;20504;-63
2023/03/14 08:57:30;;;;;;;15.57;8.45;;;12.10;98.60;;;;;;5013253;28;20037;-63
2023/03/14 08:59:57;;;;;;;8.38;6.20;;;12.10;98.50;;;;;;5015273;28;20033;-63
2023/03/14 09:02:24;;;;;;;8.68;5.97;;;12.20;98.80;;;;;;5006019;28;20034;-63
2023/03/14 09:04:50;;;;;;;9.00;6.15;;;12.40;98.50;;;;;;5008214;28;20026;-63
2023/03/14 09:07:16;;;;;;;8.60;5.88;;;12.40;98.40;;;;;;5007977;28;20037;-63
2023/03/14 09:09:42;;;;;;;8.32;5.20;;;12.50;98.70;;;;;;5012844;28;20414;-63
2023/03/14 09:12:08;;;;;;;9.48;5.38;;;12.60;98.10;;;;;;4991669;28;20087;-63
2023/03/14 09:14:33;;;;;;;8.32;5.40;;;12.70;97.20;;;;;;4992225;28;20560;-63
2023/03/14 09:16:59;;;;;;;8.15;5.65;;;12.90;97.80;;;;;;5009315;28;20057;-62
2023/03/14 09:19:24;;;;;;;7.80;5.10;;;13.10;97.80;;;;;;5009017;28;20041;-63
2023/03/14 09:21:50;;;;;;;14.23;5.60;;;13.30;97.10;;;;;;5003480;28;20479;-63
2023/03/14 09:24:17;;;;;;;8.70;5.57;;;13.40;96.90;;;;;;5008656;28;20034;-62
2023/03/14 09:26:42;;;;;;;9.48;5.60;;;13.60;96.10;;;;;;5013110;28;20493;-63
2023/03/14 09:29:08;;;;;;;5.97;4.75;;;13.70;95.60;;;;;;5011186;28;20071;-63
2023/03/14 09:31:34;;;;;;;6.63;4.30;;;13.90;95.20;;;;;;5010763;28;20998;-63
2023/03/14 09:34:00;;;;;;;11.18;4.07;;;14.10;94.80;;;;;;5011942;28;20044;-62
2023/03/14 09:36:26;;;;;;;9.93;4.03;;;14.20;93.60;;;;;;5016642;28;20501;-64
2023/03/14 09:38:52;;;;;;;5.55;3.58;;;14.30;94.00;;;;;;4994001;28;20533;-76
2023/03/14 09:41:24;;;;;;;9.98;6.45;;;14.60;93.60;;;;;;5011205;28;20033;-75
2023/03/14 09:44:08;;;;;;;32.40;23.90;;;14.80;92.80;;;;;;5014477;28;20466;-74
2023/03/14 09:46:36;;;;;;;11.65;7.75;;;15.00;92.20;;;;;;5000397;28;20696;-74
2023/03/14 09:49:02;;;;;;;6.05;4.97;;;15.10;91.60;;;;;;5010309;28;20575;-72
2023/03/14 09:51:29;;;;;;;6.88;4.30;;;15.10;90.60;;;;;;5011689;28;20021;-73
2023/03/14 09:53:54;;;;;;;7.05;4.47;;;15.10;90.60;;;;;;4999833;28;20044;-73
2023/03/14 09:56:26;;;;;;;8.25;3.45;;;15.30;91.40;;;;;;5010518;28;20082;-75
2023/03/14 09:58:56;;;;;;;6.72;3.58;;;15.50;89.60;;;;;;5004360;28;20492;-75
2023/03/14 10:01:28;;;;;;;9.93;4.47;;;15.40;88.00;;;;;;5000762;28;20059;-75
2023/03/14 10:03:56;;;;;;;9.57;7.93;;;15.50;88.80;;;;;;4998968;28;20029;-75
2023/03/14 10:06:26;;;;;;;6.60;4.10;;;15.60;89.00;;;;;;4990388;28;20569;-74
2023/03/14 10:08:52;;;;;;;4.88;3.33;;;15.70;86.00;;;;;;5007392;28;20482;-74
2023/03/14 10:11:19;;;;;;;6.45;3.10;;;15.80;88.10;;;;;;5001594;28;20041;-74
2023/03/14 10:14:07;;;;;;;9.27;3.10;;;15.80;88.40;;;;;;4995408;28;20205;-74
2023/03/14 10:16:37;;;;;;;5.47;3.40;;;15.80;88.30;;;;;;4993750;28;20725;-75
2023/03/14 10:19:21;;;;;;;7.75;2.97;;;15.90;88.10;;;;;;5014171;28;20716;-74
2023/03/14 10:21:53;;;;;;;6.47;3.28;;;16.00;86.40;;;;;;5005861;28;20230;-74
2023/03/14 10:24:22;;;;;;;5.95;3.30;;;16.10;86.50;;;;;;5007352;28;20014;-74
2023/03/14 10:26:52;;;;;;;6.57;4.07;;;16.20;85.60;;;;;;5005810;28;20361;-69
2023/03/14 10:29:18;;;;;;;7.50;3.33;;;16.20;84.90;;;;;;4995660;28;20029;-73
2023/03/14 10:32:02;;;;;;;10.75;6.45;;;16.30;84.40;;;;;;5013419;28;20402;-75
2023/03/14 10:34:34;;;;;;;13.05;5.47;;;16.30;84.70;;;;;;5012150;28;20045;-75
2023/03/14 10:37:15;;;;;;;6.70;3.80;;;16.40;84.40;;;;;;5013658;28;20045;-74
2023/03/14 10:40:13;;;;;;;4.75;3.53;;;16.40;83.70;;;;;;5014673;28;20114;-72
2023/03/14 10:42:44;;;;;;;8.07;4.07;;;16.50;84.80;;;;;;5010246;28;20041;-74
2023/03/14 10:45:33;;;;;;;9.63;4.10;;;16.50;83.20;;;;;;5008114;28;20033;-76
2023/03/14 10:48:14;;;;;;;5.85;3.88;;;16.50;81.60;;;;;;5015950;28;20021;-75
2023/03/14 10:51:08;;;;;;;8.03;3.83;;;16.50;80.90;;;;;;5014547;28;20026;-75
2023/03/14 10:54:00;;;;;;;10.50;5.20;;;16.50;82.90;;;;;;5014803;28;20433;-76
2023/03/14 10:56:27;;;;;;;10.93;4.22;;;16.50;81.70;;;;;;5011323;28;20091;-63
2023/03/14 10:58:57;;;;;;;10.45;5.50;;;16.60;81.50;;;;;;5018104;28;20057;-63
2023/03/14 11:01:41;;;;;;;5.95;3.78;;;16.60;81.60;;;;;;5016843;28;20029;-63
2023/03/14 11:04:52;;;;;;;11.55;4.72;;;16.70;81.80;;;;;;5021373;28;20045;-65
2023/03/14 11:07:27;;;;;;;6.15;2.97;;;16.90;82.40;;;;;;5000635;28;20099;-64
2023/03/14 11:10:08;;;;;;;5.32;3.00;;;17.00;81.20;;;;;;5004656;28;20453;-63
2023/03/14 11:13:11;;;;;;;5.55;3.03;;;17.10;80.10;;;;;;5014151;28;20109;-63
2023/03/14 11:15:39;;;;;;;7.90;3.20;;;17.30;79.30;;;;;;5021957;28;20883;-63
2023/03/14 11:18:39;;;;;;;6.93;2.28;;;17.50;79.50;;;;;;5013584;28;20083;-63
2023/03/14 11:21:19;;;;;;;8.70;4.15;;;17.60;78.70;;;;;;5012350;28;20025;-63
2023/03/14 11:24:08;;;;;;;37.10;32.47;;;17.70;78.50;;;;;;5016641;28;20109;-63
2023/03/14 11:27:05;;;;;;;5.03;2.20;;;17.80;78.00;;;;;;5017325;28;20025;-63
2023/03/14 11:29:43;;;;;;;3.60;1.27;;;17.90;77.70;;;;;;5020708;28;20056;-65
2023/03/14 11:32:38;;;;;;;14.35;4.40;;;18.00;77.80;;;;;;5015851;28;20453;-64
2023/03/14 11:35:35;;;;;;;10.68;6.82;;;18.10;77.40;;;;;;4996163;28;20045;-63
2023/03/14 11:38:38;;;;;;;12.63;7.78;;;18.10;77.40;;;;;;5013608;28;20122;-63
2023/03/14 11:41:09;;;;;;;16.00;11.25;;;18.10;76.40;;;;;;5018585;28;20044;-63
2023/03/14 11:43:42;;;;;;;15.43;8.85;;;18.10;76.90;;;;;;5014964;28;20036;-63
2023/03/14 11:46:15;;;;;;;8.75;5.70;;;18.20;76.50;;;;;;4987203;28;20595;-63
2023/03/14 11:48:49;;;;;;;1.17;0.70;;;18.30;77.40;;;;;;5013744;28;20026;-63
2023/03/14 11:51:25;;;;;;;1.52;0.70;;;18.40;75.30;;;;;;5019980;28;20069;-63
2023/03/14 11:54:01;;;;;;;4.47;1.55;;;18.40;75.70;;;;;;5012584;28;20045;-72
2023/03/14 11:56:37;;;;;;;2.15;1.65;;;18.40;76.50;;;;;;5018901;28;20160;-73
2023/03/14 11:59:10;;;;;;;6.60;1.35;;;18.40;76.50;;;;;;5020450;28;20493;-72
2023/03/14 12:02:01;;;;;;;0.93;0.50;;;18.40;75.40;;;;;;5013395;28;20500;-72
2023/03/14 12:04:30;;;;;;;2.13;0.70;;;18.40;75.80;;;;;;5017073;28;20083;-69
2023/03/14 12:06:57;;;;;;;1.27;0.60;;;18.50;75.20;;;;;;5019051;28;20098;-72
2023/03/14 12:09:24;;;;;;;5.70;0.75;;;18.50;74.60;;;;;;5011779;28;20049;-72
2023/03/14 12:11:58;;;;;;;1.33;0.95;;;18.40;73.60;;;;;;5015464;28;20037;-73
2023/03/14 12:14:33;;;;;;;1.02;0.50;;;18.40;75.20;;;;;;5015362;28;20034;-74
2023/03/14 12:17:17;;;;;;;2.65;0.60;;;18.40;75.70;;;;;;5013895;28;20034;-74
2023/03/14 12:19:43;;;;;;;4.22;0.73;;;18.50;75.30;;;;;;5009770;28;20541;-73
2023/03/14 12:22:26;;;;;;;2.95;0.60;;;18.50;75.90;;;;;;5007318;28;20053;-76
2023/03/14 12:24:58;;;;;;;1.67;0.43;;;18.60;76.10;;;;;;5019603;28;20568;-74
2023/03/14 12:27:50;;;;;;;0.60;0.55;;;18.60;73.50;;;;;;5003011;28;20036;-74
2023/03/14 12:30:38;;;;;;;1.95;0.60;;;18.50;73.30;;;;;;5016712;28;20037;-72
2023/03/14 12:33:10;;;;;;;2.40;0.60;;;18.40;73.50;;;;;;5020380;28;20025;-63
2023/03/14 12:35:36;;;;;;;4.13;0.85;;;18.30;75.60;;;;;;5015274;28;20040;-63
2023/03/14 12:38:10;;;;;;;3.83;0.73;;;18.30;76.90;;;;;;5008636;28;20038;-64
2023/03/14 12:40:59;;;;;;;1.65;0.63;;;18.30;76.20;;;;;;5015312;28;20170;-63
2023/03/14 12:43:30;;;;;;;2.25;0.63;;;18.20;76.00;;;;;;5012748;28;20037;-63
2023/03/14 12:46:19;;;;;;;1.02;0.40;;;18.20;77.10;;;;;;5012307;28;20033;-63
2023/03/14 12:49:03;;;;;;;1.13;0.50;;;18.10;76.00;;;;;;5006803;28;20048;-63
2023/03/14 12:51:37;;;;;;;2.78;0.50;;;18.10;76.20;;;;;;5011214;28;20033;-63
2023/03/14 12:54:17;;;;;;;3.78;0.70;;;18.10;76.30;;;;;;5013297;28;20028;-63
2023/03/14 12:56:58;;;;;;;4.55;0.63;;;18.10;75.40;;;;;;5002349;28;20033;-63
2023/03/14 12:59:24;;;;;;;5.73;3.50;;;18.10;77.00;;;;;;4997215;28;20029;-63
2023/03/14 13:02:00;;;;;;;1.13;0.55;;;18.10;75.90;;;;;;5000225;28;20056;-63